Harbor View, Ohio
Current Conditions -  °F | °C
As of 2:53 PM on Friday 24 Oct 2014 (Local Time) from KTDZ Reporting Station
Overcast Overcast  
Wind Chill: 61°   Ceiling: 3900
Heat Index: 61°   Visibility: 10mi
Dew Point: 42°   Wind: 10mph
Humidity: 50%   Direction: 230°SW
Pressure: 30.03"   Gusts: NA
Location:  41.69°N, 83.44°W
Report Text: KTDZ 241853Z AUTO 23009KT 10SM OVC039 16/06 A3003 RMK AO2 SLP170 T01610056 TSNO
Loading
Personal Weather Stations






























Interactive Weather Map New forecast layout! Learn more

10-Day Weather Forecast

Advertisements
Track Severe Weather on mobile